PWSweather.com
Personal Weather Stations
Station Observations
KTXHOUST78
First Montrose Commons, Houston, TX 77006

First Montrose CommonsHouston, TX 77006

Lat: 29.7359886, Lon: -95.3870926

Elevation: 50

Station Type: Texas Weather Instruments WR-25

Latest ConditionsUpdated 3:30:02 PM CST Sunday, Jan 19, 2020
Currently Today's Max Today's Min Today's Average
Temperature 58.0°F14.4°C 58.0°F14.4°C 44.0°F6.7°C 50.6°F10.3°C
Dew Point 27.6°F-2.4°C 48.2°F9.0°C 24.2°F-4.3°C 32.9°F0.5°C
Winds 4.0 mph NNE6.4 kmh NNE 14.0 mph -22.5 kmh - - 5.9 mph 9.5 kmh
Wind Gusts 12.0 mph19.3 kmh 18.0 mph29.0 kmh - -
Humidity 31% 75% 28% 53%
Pressure 30.40 in1029.5 mb 30.47 in1031.8 mb 30.31 in1026.4 mb -
Hour Temp Dew Point Humidity Winds Wind Gusts Pressure Precip Precip Rate Daily Precip Total
03:30 PM 58.0°F14.4°C 27.6°F-2.4°C 31% 4.0 mph NNE6.4 kmh NNE 12.0 mph19.3 kmh 30.40 in1029.5 mb 0.00 in0.0 mm 0.00 in0.0 mm 0.00 in0.0 mm
03:20 PM 58.0°F14.4°C 28.3°F-2.1°C 32% 5.0 mph NNE8.0 kmh NNE 7.0 mph11.3 kmh 30.40 in1029.5 mb 0.00 in0.0 mm 0.00 in0.0 mm 0.00 in0.0 mm
03:10 PM 58.0°F14.4°C 28.3°F-2.1°C 32% 4.0 mph NNE6.4 kmh NNE 13.0 mph20.9 kmh 30.40 in1029.5 mb 0.00 in0.0 mm 0.00 in0.0 mm 0.00 in0.0 mm
03:00 PM 58.0°F14.4°C 27.6°F-2.4°C 31% 6.0 mph NE9.7 kmh NE 8.0 mph12.9 kmh 30.40 in1029.5 mb 0.00 in0.0 mm 0.00 in0.0 mm 0.00 in0.0 mm
02:50 PM 58.0°F14.4°C 28.3°F-2.1°C 32% 2.0 mph NNW3.2 kmh NNW 5.0 mph8.0 kmh 30.40 in1029.5 mb 0.00 in0.0 mm 0.00 in0.0 mm 0.00 in0.0 mm
02:40 PM 57.0°F13.9°C 25.1°F-3.8°C 29% 6.0 mph NE9.7 kmh NE 9.0 mph14.5 kmh 30.40 in1029.5 mb 0.00 in0.0 mm 0.00 in0.0 mm 0.00 in0.0 mm
02:30 PM 57.0°F13.9°C 24.2°F-4.3°C 28% 8.0 mph ENE12.9 kmh ENE 14.0 mph22.5 kmh 30.40 in1029.5 mb 0.00 in0.0 mm 0.00 in0.0 mm 0.00 in0.0 mm
02:20 PM 57.0°F13.9°C 27.5°F-2.5°C 32% 5.0 mph ENE8.0 kmh ENE 13.0 mph20.9 kmh 30.41 in1029.8 mb 0.00 in0.0 mm 0.00 in0.0 mm 0.00 in0.0 mm
02:10 PM 57.0°F13.9°C 27.5°F-2.5°C 32% 5.0 mph 8.0 kmh 11.0 mph17.7 kmh 30.41 in1029.8 mb 0.00 in0.0 mm 0.00 in0.0 mm 0.00 in0.0 mm
02:00 PM 57.0°F13.9°C 25.1°F-3.8°C 29% 11.0 mph E17.7 kmh E 11.0 mph17.7 kmh 30.41 in1029.8 mb 0.00 in0.0 mm 0.00 in0.0 mm 0.00 in0.0 mm
01:50 PM 56.0°F13.3°C 27.3°F-2.6°C 33% 6.0 mph NNE9.7 kmh NNE 16.0 mph25.7 kmh 30.41 in1029.8 mb 0.00 in0.0 mm 0.00 in0.0 mm 0.00 in0.0 mm
01:40 PM 56.0°F13.3°C 28.1°F-2.2°C 34% 3.0 mph ENE4.8 kmh ENE 10.0 mph16.1 kmh 30.41 in1029.8 mb 0.00 in0.0 mm 0.00 in0.0 mm 0.00 in0.0 mm
01:30 PM 56.0°F13.3°C 27.3°F-2.6°C 33% 4.0 mph NE6.4 kmh NE 13.0 mph20.9 kmh 30.41 in1029.8 mb 0.00 in0.0 mm 0.00 in0.0 mm 0.00 in0.0 mm
01:20 PM 55.0°F12.8°C 27.2°F-2.7°C 34% 3.0 mph NNE4.8 kmh NNE 8.0 mph12.9 kmh 30.42 in1030.1 mb 0.00 in0.0 mm 0.00 in0.0 mm 0.00 in0.0 mm
01:10 PM 55.0°F12.8°C 27.9°F-2.3°C 35% 7.0 mph ENE11.3 kmh ENE 11.0 mph17.7 kmh 30.43 in1030.5 mb 0.00 in0.0 mm 0.00 in0.0 mm 0.00 in0.0 mm
01:00 PM 55.0°F12.8°C 27.2°F-2.7°C 34% 4.0 mph NE6.4 kmh NE 14.0 mph22.5 kmh 30.43 in1030.5 mb 0.00 in0.0 mm 0.00 in0.0 mm 0.00 in0.0 mm
12:50 PM 54.0°F12.2°C 26.3°F-3.2°C 34% 2.0 mph ESE3.2 kmh ESE 8.0 mph12.9 kmh 30.44 in1030.8 mb 0.00 in0.0 mm 0.00 in0.0 mm 0.00 in0.0 mm
12:40 PM 54.0°F12.2°C 26.3°F-3.2°C 34% 5.0 mph NNE8.0 kmh NNE 10.0 mph16.1 kmh 30.44 in1030.8 mb 0.00 in0.0 mm 0.00 in0.0 mm 0.00 in0.0 mm
12:30 PM 54.0°F12.2°C 27.7°F-2.4°C 36% 6.0 mph NE9.7 kmh NE 7.0 mph11.3 kmh 30.45 in1031.2 mb 0.00 in0.0 mm 0.00 in0.0 mm 0.00 in0.0 mm
12:20 PM 53.0°F11.7°C 27.4°F-2.6°C 37% 6.0 mph 9.7 kmh 6.0 mph9.7 kmh 30.45 in1031.2 mb 0.00 in0.0 mm 0.00 in0.0 mm 0.00 in0.0 mm
12:10 PM 53.0°F11.7°C 27.4°F-2.6°C 37% 6.0 mph NE9.7 kmh NE 8.0 mph12.9 kmh 30.46 in1031.5 mb 0.00 in0.0 mm 0.00 in0.0 mm 0.00 in0.0 mm
12:00 PM 53.0°F11.7°C 27.4°F-2.6°C 37% 5.0 mph NNE8.0 kmh NNE 8.0 mph12.9 kmh 30.47 in1031.8 mb 0.00 in0.0 mm 0.00 in0.0 mm 0.00 in0.0 mm
11:50 AM 52.0°F11.1°C 27.2°F-2.7°C 38% 6.0 mph ENE9.7 kmh ENE 8.0 mph12.9 kmh 30.47 in1031.8 mb 0.00 in0.0 mm 0.00 in0.0 mm 0.00 in0.0 mm
11:40 AM 52.0°F11.1°C 27.8°F-2.3°C 39% 3.0 mph NNE4.8 kmh NNE 3.0 mph4.8 kmh 30.47 in1031.8 mb 0.00 in0.0 mm 0.00 in0.0 mm 0.00 in0.0 mm
11:30 AM 52.0°F11.1°C 27.8°F-2.3°C 39% 5.0 mph NE8.0 kmh NE 5.0 mph8.0 kmh 30.47 in1031.8 mb 0.00 in0.0 mm 0.00 in0.0 mm 0.00 in0.0 mm
11:20 AM 51.0°F10.6°C 26.9°F-2.8°C 39% 6.0 mph NE9.7 kmh NE 8.0 mph12.9 kmh 30.47 in1031.8 mb 0.00 in0.0 mm 0.00 in0.0 mm 0.00 in0.0 mm
11:10 AM 51.0°F10.6°C 26.9°F-2.8°C 39% 6.0 mph NE9.7 kmh NE 8.0 mph12.9 kmh 30.47 in1031.8 mb 0.00 in0.0 mm 0.00 in0.0 mm 0.00 in0.0 mm
11:00 AM 50.0°F10.0°C 26.0°F-3.3°C 39% 4.0 mph NNW6.4 kmh NNW 13.0 mph20.9 kmh 30.47 in1031.8 mb 0.00 in0.0 mm 0.00 in0.0 mm 0.00 in0.0 mm
10:50 AM 51.0°F10.6°C 28.2°F-2.1°C 41% 3.0 mph 4.8 kmh 8.0 mph12.9 kmh 30.47 in1031.8 mb 0.00 in0.0 mm 0.00 in0.0 mm 0.00 in0.0 mm
10:40 AM 50.0°F10.0°C 26.7°F-2.9°C 40% 5.0 mph ENE8.0 kmh ENE 6.0 mph9.7 kmh 30.47 in1031.8 mb 0.00 in0.0 mm 0.00 in0.0 mm 0.00 in0.0 mm
10:30 AM 49.0°F9.4°C 26.9°F-2.8°C 42% 5.0 mph ENE8.0 kmh ENE 12.0 mph19.3 kmh 30.47 in1031.8 mb 0.00 in0.0 mm 0.00 in0.0 mm 0.00 in0.0 mm
10:20 AM 49.0°F9.4°C 26.9°F-2.8°C 42% 5.0 mph 8.0 kmh 10.0 mph16.1 kmh 30.47 in1031.8 mb 0.00 in0.0 mm 0.00 in0.0 mm 0.00 in0.0 mm
10:10 AM 49.0°F9.4°C 28.6°F-1.9°C 45% 14.0 mph NE22.5 kmh NE 17.0 mph27.4 kmh 30.47 in1031.8 mb 0.00 in0.0 mm 0.00 in0.0 mm 0.00 in0.0 mm
10:00 AM 48.0°F8.9°C 27.7°F-2.4°C 45% 10.0 mph NNE16.1 kmh NNE 13.0 mph20.9 kmh 30.47 in1031.8 mb 0.00 in0.0 mm 0.00 in0.0 mm 0.00 in0.0 mm
09:50 AM 47.0°F8.3°C 27.8°F-2.3°C 47% 8.0 mph ENE12.9 kmh ENE 15.0 mph24.1 kmh 30.47 in1031.8 mb 0.00 in0.0 mm 0.00 in0.0 mm 0.00 in0.0 mm
09:40 AM 47.0°F8.3°C 28.3°F-2.1°C 48% 8.0 mph NE12.9 kmh NE 9.0 mph14.5 kmh 30.47 in1031.8 mb 0.00 in0.0 mm 0.00 in0.0 mm 0.00 in0.0 mm
09:30 AM 46.0°F7.8°C 27.9°F-2.3°C 49% 8.0 mph NNE12.9 kmh NNE 13.0 mph20.9 kmh 30.46 in1031.5 mb 0.00 in0.0 mm 0.00 in0.0 mm 0.00 in0.0 mm
09:20 AM 46.0°F7.8°C 27.9°F-2.3°C 49% 7.0 mph NE11.3 kmh NE 7.0 mph11.3 kmh 30.46 in1031.5 mb 0.00 in0.0 mm 0.00 in0.0 mm 0.00 in0.0 mm
09:10 AM 45.0°F7.2°C 27.0°F-2.8°C 49% 6.0 mph NNE9.7 kmh NNE 18.0 mph29.0 kmh 30.45 in1031.2 mb 0.00 in0.0 mm 0.00 in0.0 mm 0.00 in0.0 mm
09:00 AM 45.0°F7.2°C 28.0°F-2.2°C 51% 11.0 mph NE17.7 kmh NE 16.0 mph25.7 kmh 30.45 in1031.2 mb 0.00 in0.0 mm 0.00 in0.0 mm 0.00 in0.0 mm
08:50 AM 45.0°F7.2°C 28.0°F-2.2°C 51% 1.0 mph WNW1.6 kmh WNW 11.0 mph17.7 kmh 30.44 in1030.8 mb 0.00 in0.0 mm 0.00 in0.0 mm 0.00 in0.0 mm
08:40 AM 45.0°F7.2°C 28.5°F-1.9°C 52% 9.0 mph 14.5 kmh 13.0 mph20.9 kmh 30.44 in1030.8 mb 0.00 in0.0 mm 0.00 in0.0 mm 0.00 in0.0 mm
08:30 AM 44.0°F6.7°C 28.4°F-2.0°C 54% 8.0 mph 12.9 kmh 15.0 mph24.1 kmh 30.43 in1030.5 mb 0.00 in0.0 mm 0.00 in0.0 mm 0.00 in0.0 mm
08:20 AM 44.0°F6.7°C 28.4°F-2.0°C 54% 4.0 mph NNE6.4 kmh NNE 6.0 mph9.7 kmh 30.42 in1030.1 mb 0.00 in0.0 mm 0.00 in0.0 mm 0.00 in0.0 mm
08:10 AM 44.0°F6.7°C 28.4°F-2.0°C 54% 5.0 mph NE8.0 kmh NE 11.0 mph17.7 kmh 30.42 in1030.1 mb 0.00 in0.0 mm 0.00 in0.0 mm 0.00 in0.0 mm
08:00 AM 44.0°F6.7°C 28.4°F-2.0°C 54% 5.0 mph ENE8.0 kmh ENE 13.0 mph20.9 kmh 30.42 in1030.1 mb 0.00 in0.0 mm 0.00 in0.0 mm 0.00 in0.0 mm
07:50 AM 44.0°F6.7°C 28.4°F-2.0°C 54% 5.0 mph NNE8.0 kmh NNE 6.0 mph9.7 kmh 30.41 in1029.8 mb 0.00 in0.0 mm 0.00 in0.0 mm 0.00 in0.0 mm
07:40 AM 44.0°F6.7°C 28.9°F-1.7°C 55% 5.0 mph ENE8.0 kmh ENE 10.0 mph16.1 kmh 30.41 in1029.8 mb 0.00 in0.0 mm 0.00 in0.0 mm 0.00 in0.0 mm
07:30 AM 44.0°F6.7°C 28.9°F-1.7°C 55% 5.0 mph NE8.0 kmh NE 11.0 mph17.7 kmh 30.41 in1029.8 mb 0.00 in0.0 mm 0.00 in0.0 mm 0.00 in0.0 mm
07:20 AM 45.0°F7.2°C 29.8°F-1.2°C 55% 4.0 mph WNW6.4 kmh WNW 7.0 mph11.3 kmh 30.40 in1029.5 mb 0.00 in0.0 mm 0.00 in0.0 mm 0.00 in0.0 mm
07:10 AM 45.0°F7.2°C 30.3°F-0.9°C 56% 3.0 mph ENE4.8 kmh ENE 6.0 mph9.7 kmh 30.40 in1029.5 mb 0.00 in0.0 mm 0.00 in0.0 mm 0.00 in0.0 mm
07:00 AM 45.0°F7.2°C 30.7°F-0.7°C 57% 11.0 mph NE17.7 kmh NE 12.0 mph19.3 kmh 30.39 in1029.1 mb 0.00 in0.0 mm 0.00 in0.0 mm 0.00 in0.0 mm
06:50 AM 45.0°F7.2°C 30.7°F-0.7°C 57% 6.0 mph NE9.7 kmh NE 16.0 mph25.7 kmh 30.38 in1028.8 mb 0.00 in0.0 mm 0.00 in0.0 mm 0.00 in0.0 mm
06:40 AM 46.0°F7.8°C 32.1°F0.1°C 58% 5.0 mph E8.0 kmh E 6.0 mph9.7 kmh 30.38 in1028.8 mb 0.00 in0.0 mm 0.00 in0.0 mm 0.00 in0.0 mm
06:30 AM 46.0°F7.8°C 32.5°F0.3°C 59% 6.0 mph NE9.7 kmh NE 7.0 mph11.3 kmh 30.37 in1028.4 mb 0.00 in0.0 mm 0.00 in0.0 mm 0.00 in0.0 mm
06:20 AM 46.0°F7.8°C 32.5°F0.3°C 59% 3.0 mph NNW4.8 kmh NNW 6.0 mph9.7 kmh 30.37 in1028.4 mb 0.00 in0.0 mm 0.00 in0.0 mm 0.00 in0.0 mm
06:10 AM 46.0°F7.8°C 32.5°F0.3°C 59% 8.0 mph 12.9 kmh 10.0 mph16.1 kmh 30.36 in1028.1 mb 0.00 in0.0 mm 0.00 in0.0 mm 0.00 in0.0 mm
06:00 AM 47.0°F8.3°C 33.0°F0.6°C 58% 6.0 mph 9.7 kmh 12.0 mph19.3 kmh 30.36 in1028.1 mb 0.00 in0.0 mm 0.00 in0.0 mm 0.00 in0.0 mm
05:50 AM 47.0°F8.3°C 33.0°F0.6°C 58% 8.0 mph NNE12.9 kmh NNE 11.0 mph17.7 kmh 30.35 in1027.8 mb 0.00 in0.0 mm 0.00 in0.0 mm 0.00 in0.0 mm
05:40 AM 47.0°F8.3°C 33.4°F0.8°C 59% 5.0 mph NE8.0 kmh NE 10.0 mph16.1 kmh 30.35 in1027.8 mb 0.00 in0.0 mm 0.00 in0.0 mm 0.00 in0.0 mm
05:30 AM 47.0°F8.3°C 33.9°F1.1°C 60% 7.0 mph NE11.3 kmh NE 10.0 mph16.1 kmh 30.34 in1027.4 mb 0.00 in0.0 mm 0.00 in0.0 mm 0.00 in0.0 mm
05:20 AM 48.0°F8.9°C 34.8°F1.6°C 60% 7.0 mph NE11.3 kmh NE 13.0 mph20.9 kmh 30.34 in1027.4 mb 0.00 in0.0 mm 0.00 in0.0 mm 0.00 in0.0 mm
05:10 AM 48.0°F8.9°C 34.8°F1.6°C 60% 6.0 mph NE9.7 kmh NE 6.0 mph9.7 kmh 30.34 in1027.4 mb 0.00 in0.0 mm 0.00 in0.0 mm 0.00 in0.0 mm
05:00 AM 48.0°F8.9°C 35.2°F1.8°C 61% 7.0 mph NNE11.3 kmh NNE 10.0 mph16.1 kmh 30.33 in1027.1 mb 0.00 in0.0 mm 0.00 in0.0 mm 0.00 in0.0 mm
04:50 AM 48.0°F8.9°C 35.2°F1.8°C 61% 6.0 mph NE9.7 kmh NE 7.0 mph11.3 kmh 30.33 in1027.1 mb 0.00 in0.0 mm 0.00 in0.0 mm 0.00 in0.0 mm
04:40 AM 49.0°F9.4°C 36.6°F2.6°C 62% 9.0 mph NNE14.5 kmh NNE 12.0 mph19.3 kmh 30.33 in1027.1 mb 0.00 in0.0 mm 0.00 in0.0 mm 0.00 in0.0 mm
04:30 AM 49.0°F9.4°C 37.0°F2.8°C 63% 4.0 mph WNW6.4 kmh WNW 10.0 mph16.1 kmh 30.33 in1027.1 mb 0.00 in0.0 mm 0.00 in0.0 mm 0.00 in0.0 mm
04:20 AM 49.0°F9.4°C 37.0°F2.8°C 63% 6.0 mph 9.7 kmh 8.0 mph12.9 kmh 30.33 in1027.1 mb 0.00 in0.0 mm 0.00 in0.0 mm 0.00 in0.0 mm
04:10 AM 49.0°F9.4°C 37.0°F2.8°C 63% 10.0 mph NE16.1 kmh NE 11.0 mph17.7 kmh 30.33 in1027.1 mb 0.00 in0.0 mm 0.00 in0.0 mm 0.00 in0.0 mm
04:00 AM 50.0°F10.0°C 38.3°F3.5°C 64% 5.0 mph NE8.0 kmh NE 8.0 mph12.9 kmh 30.34 in1027.4 mb 0.00 in0.0 mm 0.00 in0.0 mm 0.00 in0.0 mm
03:50 AM 50.0°F10.0°C 38.7°F3.7°C 65% 10.0 mph 16.1 kmh 11.0 mph17.7 kmh 30.34 in1027.4 mb 0.00 in0.0 mm 0.00 in0.0 mm 0.00 in0.0 mm
03:40 AM 50.0°F10.0°C 38.7°F3.7°C 65% 6.0 mph ENE9.7 kmh ENE 11.0 mph17.7 kmh 30.34 in1027.4 mb 0.00 in0.0 mm 0.00 in0.0 mm 0.00 in0.0 mm
03:30 AM 50.0°F10.0°C 39.5°F4.2°C 67% 4.0 mph NE6.4 kmh NE 10.0 mph16.1 kmh 30.34 in1027.4 mb 0.00 in0.0 mm 0.00 in0.0 mm 0.00 in0.0 mm
03:20 AM 50.0°F10.0°C 39.5°F4.2°C 67% 3.0 mph NE4.8 kmh NE 5.0 mph8.0 kmh 30.34 in1027.4 mb 0.00 in0.0 mm 0.00 in0.0 mm 0.00 in0.0 mm
03:10 AM 51.0°F10.6°C 40.4°F4.7°C 67% 4.0 mph NNE6.4 kmh NNE 11.0 mph17.7 kmh 30.34 in1027.4 mb 0.00 in0.0 mm 0.00 in0.0 mm 0.00 in0.0 mm
03:00 AM 51.0°F10.6°C 40.4°F4.7°C 67% 10.0 mph NE16.1 kmh NE 10.0 mph16.1 kmh 30.34 in1027.4 mb 0.00 in0.0 mm 0.00 in0.0 mm 0.00 in0.0 mm
02:50 AM 51.0°F10.6°C 40.8°F4.9°C 68% 6.0 mph NNE9.7 kmh NNE 9.0 mph14.5 kmh 30.33 in1027.1 mb 0.00 in0.0 mm 0.00 in0.0 mm 0.00 in0.0 mm
02:40 AM 51.0°F10.6°C 40.8°F4.9°C 68% 3.0 mph 4.8 kmh 10.0 mph16.1 kmh 30.33 in1027.1 mb 0.00 in0.0 mm 0.00 in0.0 mm 0.00 in0.0 mm
02:30 AM 51.0°F10.6°C 41.2°F5.1°C 69% 6.0 mph NNE9.7 kmh NNE 11.0 mph17.7 kmh 30.33 in1027.1 mb 0.00 in0.0 mm 0.00 in0.0 mm 0.00 in0.0 mm
02:20 AM 52.0°F11.1°C 42.5°F5.8°C 70% 8.0 mph NNE12.9 kmh NNE 12.0 mph19.3 kmh 30.33 in1027.1 mb 0.00 in0.0 mm 0.00 in0.0 mm 0.00 in0.0 mm
02:10 AM 52.0°F11.1°C 42.5°F5.8°C 70% 3.0 mph NE4.8 kmh NE 8.0 mph12.9 kmh 30.32 in1026.8 mb 0.00 in0.0 mm 0.00 in0.0 mm 0.00 in0.0 mm
02:00 AM 52.0°F11.1°C 42.9°F6.1°C 71% 6.0 mph NNE9.7 kmh NNE 8.0 mph12.9 kmh 30.33 in1027.1 mb 0.00 in0.0 mm 0.00 in0.0 mm 0.00 in0.0 mm
01:50 AM 52.0°F11.1°C 42.9°F6.1°C 71% 6.0 mph NE9.7 kmh NE 8.0 mph12.9 kmh 30.32 in1026.8 mb 0.00 in0.0 mm 0.00 in0.0 mm 0.00 in0.0 mm
01:40 AM 53.0°F11.7°C 44.2°F6.8°C 72% 6.0 mph 9.7 kmh 8.0 mph12.9 kmh 30.32 in1026.8 mb 0.00 in0.0 mm 0.00 in0.0 mm 0.00 in0.0 mm
01:30 AM 53.0°F11.7°C 44.2°F6.8°C 72% 9.0 mph NNE14.5 kmh NNE 11.0 mph17.7 kmh 30.32 in1026.8 mb 0.00 in0.0 mm 0.00 in0.0 mm 0.00 in0.0 mm
01:20 AM 53.0°F11.7°C 44.6°F7.0°C 73% 6.0 mph NE9.7 kmh NE 16.0 mph25.7 kmh 30.32 in1026.8 mb 0.00 in0.0 mm 0.00 in0.0 mm 0.00 in0.0 mm
01:10 AM 53.0°F11.7°C 44.6°F7.0°C 73% 10.0 mph ESE16.1 kmh ESE 11.0 mph17.7 kmh 30.32 in1026.8 mb 0.00 in0.0 mm 0.00 in0.0 mm 0.00 in0.0 mm
01:00 AM 54.0°F12.2°C 45.6°F7.6°C 73% 7.0 mph NW11.3 kmh NW 11.0 mph17.7 kmh 30.32 in1026.8 mb 0.00 in0.0 mm 0.00 in0.0 mm 0.00 in0.0 mm
12:50 AM 54.0°F12.2°C 45.6°F7.6°C 73% 6.0 mph NE9.7 kmh NE 10.0 mph16.1 kmh 30.32 in1026.8 mb 0.00 in0.0 mm 0.00 in0.0 mm 0.00 in0.0 mm
12:40 AM 54.0°F12.2°C 45.9°F7.7°C 74% 7.0 mph NNW11.3 kmh NNW 9.0 mph14.5 kmh 30.32 in1026.8 mb 0.00 in0.0 mm 0.00 in0.0 mm 0.00 in0.0 mm
12:30 AM 55.0°F12.8°C 47.2°F8.4°C 75% 6.0 mph NNE9.7 kmh NNE 11.0 mph17.7 kmh 30.32 in1026.8 mb 0.00 in0.0 mm 0.00 in0.0 mm 0.00 in0.0 mm
12:20 AM 55.0°F12.8°C 47.2°F8.4°C 75% 2.0 mph 3.2 kmh 12.0 mph19.3 kmh 30.32 in1026.8 mb 0.00 in0.0 mm 0.00 in0.0 mm 0.00 in0.0 mm
12:10 AM 56.0°F13.3°C 48.2°F9.0°C 75% 5.0 mph NE8.0 kmh NE 12.0 mph19.3 kmh 30.32 in1026.8 mb 0.00 in0.0 mm 0.00 in0.0 mm 0.00 in0.0 mm
12:00 AM 56.0°F13.3°C 47.8°F8.8°C 74% 8.0 mph NE12.9 kmh NE 13.0 mph20.9 kmh 30.31 in1026.4 mb 0.00 in0.0 mm 0.00 in0.0 mm 0.00 in0.0 mm